Time,TemperatureF,DewpointF,PressureIn,WindDirection,WindDirectionDegrees,WindSpeedMPH,WindSpeedGustMPH,Humidity,HourlyPrecipIn,Conditions,Clouds,dailyrainin,SoftwareType,DateUTC
2013-06-03 00:03:00,75.0,75.0,29.97,North,0,0.0,0.0,100,99.99,,,-99.99,,2013-06-03 04:03:00,
2013-06-03 00:13:00,75.0,75.0,29.96,North,0,0.0,0.0,100,99.99,,,-99.99,,2013-06-03 04:13:00,
2013-06-03 00:23:00,75.0,75.0,29.96,North,0,0.0,0.0,100,99.99,,,-99.99,,2013-06-03 04:23:00,
2013-06-03 00:33:00,75.0,75.0,29.96,SSW,207,1.0,3.0,100,99.99,,,-99.99,,2013-06-03 04:33:00,
2013-06-03 00:42:00,75.0,75.0,29.96,North,0,0.0,0.0,100,99.99,,,-99.99,,2013-06-03 04:42:00,
2013-06-03 00:53:00,75.0,75.0,29.96,North,0,0.0,0.0,100,99.99,,,-99.99,,2013-06-03 04:53:00,
2013-06-03 01:02:00,75.0,75.0,29.96,North,0,0.0,0.0,100,99.99,,,-99.99,,2013-06-03 05:02:00,
2013-06-03 01:12:00,75.0,75.0,29.96,North,0,0.0,0.0,100,99.99,,,-99.99,,2013-06-03 05:12:00,
2013-06-03 01:22:00,75.0,75.0,29.96,North,0,0.0,0.0,100,99.99,,,-99.99,,2013-06-03 05:22:00,
2013-06-03 01:32:00,75.0,75.0,29.96,SE,134,0.0,3.0,100,99.99,,,-99.99,,2013-06-03 05:32:00,
2013-06-03 01:42:00,75.0,75.0,29.96,SE,134,0.0,3.0,100,99.99,,,-99.99,,2013-06-03 05:42:00,
2013-06-03 01:52:00,75.0,75.0,29.96,SSE,150,0.0,3.0,100,99.99,,,-99.99,,2013-06-03 05:52:00,
2013-06-03 02:02:00,75.0,75.0,29.95,North,0,0.0,0.0,100,99.99,,,-99.99,,2013-06-03 06:02:00,
2013-06-03 02:12:00,75.0,75.0,29.95,North,0,0.0,0.0,100,99.99,,,-99.99,,2013-06-03 06:12:00,
2013-06-03 02:22:00,75.0,75.0,29.95,North,0,0.0,0.0,100,99.99,,,-99.99,,2013-06-03 06:22:00,
2013-06-03 02:32:00,74.0,74.0,29.94,North,0,0.0,0.0,100,99.99,,,-99.99,,2013-06-03 06:32:00,
2013-06-03 02:42:00,74.0,74.0,29.94,North,0,0.0,0.0,100,99.99,,,-99.99,,2013-06-03 06:42:00,
2013-06-03 02:52:00,74.0,74.0,29.94,North,0,0.0,0.0,100,99.99,,,-99.99,,2013-06-03 06:52:00,
2013-06-03 03:02:00,74.0,74.0,29.94,North,0,0.0,0.0,100,99.99,,,-99.99,,2013-06-03 07:02:00,
2013-06-03 03:12:00,74.0,74.0,29.94,North,0,0.0,0.0,100,99.99,,,-99.99,,2013-06-03 07:12:00,
2013-06-03 03:22:00,74.0,74.0,29.94,North,0,0.0,0.0,100,99.99,,,-99.99,,2013-06-03 07:22:00,
2013-06-03 03:32:00,74.0,74.0,29.93,North,0,0.0,0.0,100,99.99,,,-99.99,,2013-06-03 07:32:00,
2013-06-03 03:42:00,74.0,74.0,29.93,North,0,0.0,0.0,100,99.99,,,-99.99,,2013-06-03 07:42:00,
2013-06-03 03:52:00,73.0,73.0,29.93,North,0,0.0,0.0,100,99.99,,,-99.99,,2013-06-03 07:52:00,
2013-06-03 04:02:00,73.0,73.0,29.93,SSE,163,2.0,4.0,100,99.99,,,-99.99,,2013-06-03 08:02:00,
2013-06-03 04:12:00,73.0,73.0,29.93,SSE,163,2.0,4.0,100,99.99,,,-99.99,,2013-06-03 08:12:00,
2013-06-03 04:22:00,73.0,73.0,29.92,North,0,0.0,0.0,100,99.99,,,-99.99,,2013-06-03 08:22:00,
2013-06-03 04:32:00,73.0,73.0,29.92,SSW,205,2.0,4.0,100,99.99,,,-99.99,,2013-06-03 08:32:00,
2013-06-03 04:42:00,73.0,73.0,29.92,SSW,205,2.0,4.0,100,99.99,,,-99.99,,2013-06-03 08:42:00,
2013-06-03 04:52:00,73.0,73.0,29.92,SSW,208,3.0,4.0,100,99.99,,,-99.99,,2013-06-03 08:52:00,
2013-06-03 05:02:00,73.0,73.0,29.92,SSW,205,1.0,2.0,100,99.99,,,-99.99,,2013-06-03 09:02:00,
2013-06-03 05:12:00,73.0,73.0,29.92,North,0,0.0,0.0,100,99.99,,,-99.99,,2013-06-03 09:12:00,
2013-06-03 05:22:00,73.0,73.0,29.92,North,0,0.0,0.0,100,99.99,,,-99.99,,2013-06-03 09:22:00,
2013-06-03 05:33:00,73.0,73.0,29.93,SE,132,2.0,5.0,100,99.99,,,-99.99,,2013-06-03 09:33:00,
2013-06-03 05:42:00,72.0,72.0,29.92,SSE,153,2.0,4.0,100,99.99,,,-99.99,,2013-06-03 09:42:00,
2013-06-03 05:53:00,72.0,72.0,29.92,SSE,153,2.0,4.0,100,99.99,,,-99.99,,2013-06-03 09:53:00,
2013-06-03 06:03:00,72.0,72.0,29.93,North,0,0.0,0.0,100,99.99,,,-99.99,,2013-06-03 10:03:00,
2013-06-03 06:12:00,72.0,72.0,29.94,North,0,0.0,0.0,100,99.99,,,-99.99,,2013-06-03 10:12:00,
2013-06-03 06:22:00,72.0,72.0,29.94,North,0,0.0,0.0,100,99.99,,,-99.99,,2013-06-03 10:22:00,
2013-06-03 06:33:00,72.0,72.0,29.94,North,0,0.0,0.0,100,99.99,,,-99.99,,2013-06-03 10:33:00,
2013-06-03 06:42:00,72.0,72.0,29.94,North,0,0.0,0.0,100,99.99,,,-99.99,,2013-06-03 10:42:00,
2013-06-03 06:52:00,72.0,72.0,29.94,North,0,0.0,0.0,100,99.99,,,-99.99,,2013-06-03 10:52:00,
2013-06-03 07:02:00,72.0,72.0,29.95,North,0,0.0,0.0,100,99.99,,,-99.99,,2013-06-03 11:02:00,
2013-06-03 07:12:00,72.0,72.0,29.95,North,0,0.0,0.0,100,99.99,,,-99.99,,2013-06-03 11:12:00,
2013-06-03 07:22:00,72.0,72.0,29.95,North,0,0.0,0.0,100,99.99,,,-99.99,,2013-06-03 11:22:00,
2013-06-03 07:32:00,72.0,72.0,29.94,North,0,0.0,0.0,100,99.99,,,-99.99,,2013-06-03 11:32:00,
2013-06-03 07:42:00,72.0,72.0,29.94,North,0,0.0,0.0,100,99.99,,,-99.99,,2013-06-03 11:42:00,
2013-06-03 07:52:00,73.0,73.0,29.95,North,0,0.0,0.0,100,99.99,,,-99.99,,2013-06-03 11:52:00,
2013-06-03 08:02:00,74.0,74.0,29.94,North,0,0.0,0.0,100,99.99,,,-99.99,,2013-06-03 12:02:00,
2013-06-03 08:12:00,74.0,74.0,29.94,North,0,0.0,0.0,100,99.99,,,-99.99,,2013-06-03 12:12:00,
2013-06-03 08:22:00,74.0,74.0,29.95,SSW,212,3.0,5.0,100,99.99,,,-99.99,,2013-06-03 12:22:00,
2013-06-03 08:32:00,75.0,75.0,29.96,SW,228,4.0,6.0,100,99.99,,,-99.99,,2013-06-03 12:32:00,
2013-06-03 08:42:00,75.0,75.0,29.96,SW,228,4.0,6.0,100,99.99,,,-99.99,,2013-06-03 12:42:00,
2013-06-03 08:52:00,76.0,76.0,29.97,SW,228,5.0,7.0,100,99.99,,,-99.99,,2013-06-03 12:52:00,
2013-06-03 09:02:00,77.0,77.0,29.97,SW,221,3.0,6.0,100,99.99,,,-99.99,,2013-06-03 13:02:00,
2013-06-03 09:12:00,77.0,77.0,29.97,SW,221,3.0,6.0,100,99.99,,,-99.99,,2013-06-03 13:12:00,
2013-06-03 09:22:00,79.0,79.0,29.97,SW,235,4.0,6.0,100,99.99,,,-99.99,,2013-06-03 13:22:00,
2013-06-03 09:32:00,81.0,77.0,29.97,SW,224,4.0,7.0,89,99.99,,,-99.99,,2013-06-03 13:32:00,
2013-06-03 09:42:00,81.0,77.0,29.97,SW,224,4.0,7.0,89,99.99,,,-99.99,,2013-06-03 13:42:00,
2013-06-03 09:53:00,81.0,75.0,29.96,SSW,203,4.0,6.0,82,99.99,,,-99.99,,2013-06-03 13:53:00,
2013-06-03 10:02:00,82.0,74.0,29.97,SW,225,5.0,8.0,77,99.99,,,-99.99,,2013-06-03 14:02:00,
2013-06-03 10:12:00,82.0,74.0,29.97,SW,225,5.0,8.0,77,99.99,,,-99.99,,2013-06-03 14:12:00,
2013-06-03 10:22:00,83.0,74.0,29.97,SW,226,6.0,9.0,75,99.99,,,-99.99,,2013-06-03 14:22:00,
2013-06-03 10:32:00,82.0,73.0,29.97,SSW,205,4.0,8.0,75,99.99,,,-99.99,,2013-06-03 14:32:00,
2013-06-03 10:42:00,82.0,73.0,29.97,SSW,205,4.0,8.0,75,99.99,,,-99.99,,2013-06-03 14:42:00,
2013-06-03 10:52:00,83.0,73.0,29.97,SW,221,5.0,9.0,72,99.99,,,-99.99,,2013-06-03 14:52:00,
2013-06-03 11:02:00,84.0,73.0,29.97,SW,236,5.0,8.0,70,99.99,,,-99.99,,2013-06-03 15:02:00,
2013-06-03 11:12:00,84.0,73.0,29.97,SW,236,5.0,8.0,70,99.99,,,-99.99,,2013-06-03 15:12:00,
2013-06-03 11:22:00,85.0,74.0,29.97,SSW,208,5.0,9.0,70,99.99,,,-99.99,,2013-06-03 15:22:00,
2013-06-03 11:33:00,86.0,72.0,29.97,WSW,239,6.0,9.0,63,99.99,,,-99.99,,2013-06-03 15:33:00,
2013-06-03 11:43:00,86.0,72.0,29.97,WSW,239,6.0,9.0,63,99.99,,,-99.99,,2013-06-03 15:43:00,
2013-06-03 11:53:00,87.0,72.0,29.97,SSW,211,5.0,8.0,62,99.99,,,-99.99,,2013-06-03 15:53:00,
2013-06-03 12:03:00,86.0,71.0,29.97,West,263,5.0,8.0,62,99.99,,,-99.99,,2013-06-03 16:03:00,
2013-06-03 12:13:00,87.0,72.0,29.97,South,181,3.0,6.0,62,99.99,,,-99.99,,2013-06-03 16:13:00,
2013-06-03 12:23:00,87.0,72.0,29.97,South,181,3.0,6.0,62,99.99,,,-99.99,,2013-06-03 16:23:00,
2013-06-03 12:33:00,87.0,72.0,29.97,SSW,205,3.0,6.0,61,99.99,,,-99.99,,2013-06-03 16:33:00,
2013-06-03 12:42:00,88.0,71.0,29.97,WSW,239,3.0,6.0,58,99.99,,,-99.99,,2013-06-03 16:42:00,
2013-06-03 12:53:00,88.0,71.0,29.97,WSW,239,3.0,6.0,58,99.99,,,-99.99,,2013-06-03 16:53:00,
2013-06-03 13:02:00,88.0,72.0,29.96,SW,226,5.0,7.0,60,99.99,,,-99.99,,2013-06-03 17:02:00,
2013-06-03 13:12:00,88.0,71.0,29.95,WSW,245,2.0,9.0,58,99.99,,,-99.99,,2013-06-03 17:12:00,
2013-06-03 13:22:00,88.0,71.0,29.95,WSW,245,2.0,9.0,58,99.99,,,-99.99,,2013-06-03 17:22:00,
2013-06-03 13:33:00,88.0,72.0,29.95,SW,222,4.0,8.0,59,99.99,,,-99.99,,2013-06-03 17:33:00,
2013-06-03 13:42:00,90.0,72.0,29.94,SSW,204,6.0,10.0,56,99.99,,,-99.99,,2013-06-03 17:42:00,
2013-06-03 13:52:00,90.0,72.0,29.94,SSW,204,6.0,10.0,56,99.99,,,-99.99,,2013-06-03 17:52:00,
2013-06-03 14:02:00,90.0,71.0,29.93,SW,225,3.0,7.0,54,99.99,,,-99.99,,2013-06-03 18:02:00,
2013-06-03 14:12:00,90.0,72.0,29.93,SW,215,6.0,11.0,56,99.99,,,-99.99,,2013-06-03 18:12:00,
2013-06-03 14:22:00,90.0,72.0,29.93,SW,215,6.0,11.0,56,99.99,,,-99.99,,2013-06-03 18:22:00,
2013-06-03 14:32:00,88.0,72.0,29.93,SW,215,7.0,11.0,59,99.99,,,-99.99,,2013-06-03 18:32:00,
2013-06-03 14:42:00,88.0,72.0,29.93,SW,215,7.0,11.0,59,99.99,,,-99.99,,2013-06-03 18:42:00,
2013-06-03 14:53:00,86.0,72.0,29.93,West,263,5.0,8.0,63,99.99,,,-99.99,,2013-06-03 18:53:00,
2013-06-03 15:03:00,85.0,72.0,29.92,WNW,302,3.0,6.0,65,99.99,,,-99.99,,2013-06-03 19:03:00,
2013-06-03 15:12:00,85.0,72.0,29.92,WNW,302,3.0,6.0,65,99.99,,,-99.99,,2013-06-03 19:12:00,
2013-06-03 15:22:00,85.0,72.0,29.92,SW,231,2.0,5.0,66,99.99,,,-99.99,,2013-06-03 19:22:00,
2013-06-03 15:32:00,86.0,72.0,29.92,SW,229,4.0,10.0,63,99.99,,,-99.99,,2013-06-03 19:32:00,
2013-06-03 15:42:00,86.0,72.0,29.92,SW,229,4.0,10.0,63,99.99,,,-99.99,,2013-06-03 19:42:00,
2013-06-03 15:53:00,87.0,71.0,29.92,West,278,7.0,11.0,60,99.99,,,-99.99,,2013-06-03 19:53:00,
2013-06-03 16:02:00,87.0,73.0,29.92,West,264,7.0,12.0,63,99.99,,,-99.99,,2013-06-03 20:02:00,
2013-06-03 16:12:00,87.0,73.0,29.92,West,264,7.0,12.0,63,99.99,,,-99.99,,2013-06-03 20:12:00,
2013-06-03 16:22:00,85.0,72.0,29.92,West,281,6.0,10.0,66,99.99,,,-99.99,,2013-06-03 20:22:00,
2013-06-03 16:32:00,83.0,72.0,29.92,WNW,291,10.0,15.0,70,99.99,,,-99.99,,2013-06-03 20:32:00,
2013-06-03 16:42:00,83.0,72.0,29.92,WNW,291,10.0,15.0,70,99.99,,,-99.99,,2013-06-03 20:42:00,
2013-06-03 16:52:00,81.0,71.0,29.93,West,270,7.0,14.0,72,99.99,,,-99.99,,2013-06-03 20:52:00,
2013-06-03 17:02:00,80.0,72.0,29.94,WSW,239,9.0,15.0,78,99.99,,,-99.99,,2013-06-03 21:02:00,
2013-06-03 17:12:00,77.0,74.0,29.93,WSW,253,7.0,11.0,89,99.99,,,-99.99,,2013-06-03 21:12:00,
2013-06-03 17:22:00,77.0,74.0,29.93,WSW,253,7.0,11.0,89,99.99,,,-99.99,,2013-06-03 21:22:00,
2013-06-03 17:33:00,76.0,75.0,29.93,South,184,1.0,3.0,96,99.99,,,-99.99,,2013-06-03 21:33:00,
2013-06-03 17:43:00,76.0,75.0,29.93,South,184,1.0,3.0,96,99.99,,,-99.99,,2013-06-03 21:43:00,
2013-06-03 17:53:00,76.0,76.0,29.93,SW,233,4.0,6.0,100,99.99,,,-99.99,,2013-06-03 21:53:00,
2013-06-03 18:03:00,76.0,76.0,29.93,WSW,243,4.0,6.0,100,99.99,,,-99.99,,2013-06-03 22:03:00,
2013-06-03 18:12:00,76.0,76.0,29.93,WSW,243,4.0,6.0,100,99.99,,,-99.99,,2013-06-03 22:12:00,
2013-06-03 18:22:00,77.0,77.0,29.93,SW,226,5.0,7.0,100,99.99,,,-99.99,,2013-06-03 22:22:00,
2013-06-03 18:33:00,77.0,77.0,29.93,SW,224,3.0,5.0,100,99.99,,,-99.99,,2013-06-03 22:33:00,
2013-06-03 18:42:00,77.0,77.0,29.93,SW,224,3.0,5.0,100,99.99,,,-99.99,,2013-06-03 22:42:00,
2013-06-03 18:53:00,77.0,77.0,29.93,SW,233,4.0,6.0,100,99.99,,,-99.99,,2013-06-03 22:53:00,
2013-06-03 19:02:00,77.0,77.0,29.92,WSW,242,5.0,8.0,100,99.99,,,-99.99,,2013-06-03 23:02:00,
2013-06-03 19:12:00,77.0,77.0,29.92,WSW,242,5.0,8.0,100,99.99,,,-99.99,,2013-06-03 23:12:00,
2013-06-03 19:22:00,77.0,77.0,29.92,WNW,285,3.0,5.0,100,99.99,,,-99.99,,2013-06-03 23:22:00,
2013-06-03 19:32:00,77.0,77.0,29.93,West,280,3.0,5.0,100,99.99,,,-99.99,,2013-06-03 23:32:00,
2013-06-03 19:42:00,77.0,77.0,29.93,West,280,3.0,5.0,100,99.99,,,-99.99,,2013-06-03 23:42:00,
2013-06-03 19:52:00,76.0,76.0,29.93,West,259,5.0,8.0,100,99.99,,,-99.99,,2013-06-03 23:52:00,
2013-06-03 20:02:00,76.0,76.0,29.95,North,0,0.0,0.0,100,99.99,,,-99.99,,2013-06-04 00:02:00,
2013-06-03 20:12:00,76.0,76.0,29.95,North,0,0.0,0.0,100,99.99,,,-99.99,,2013-06-04 00:12:00,
2013-06-03 20:22:00,76.0,76.0,29.95,North,0,0.0,0.0,100,99.99,,,-99.99,,2013-06-04 00:22:00,
2013-06-03 20:32:00,76.0,76.0,29.96,WNW,300,2.0,2.0,100,99.99,,,-99.99,,2013-06-04 00:32:00,
2013-06-03 20:42:00,76.0,76.0,29.96,WNW,300,2.0,2.0,100,99.99,,,-99.99,,2013-06-04 00:42:00,
2013-06-03 20:52:00,75.0,75.0,29.96,WNW,291,1.0,3.0,100,99.99,,,-99.99,,2013-06-04 00:52:00,
2013-06-03 21:02:00,75.0,75.0,29.96,NW,321,1.0,3.0,100,99.99,,,-99.99,,2013-06-04 01:02:00,
2013-06-03 21:12:00,75.0,75.0,29.96,NW,321,1.0,3.0,100,99.99,,,-99.99,,2013-06-04 01:12:00,
2013-06-03 21:22:00,75.0,75.0,29.96,North,0,0.0,0.0,100,99.99,,,-99.99,,2013-06-04 01:22:00,
2013-06-03 21:32:00,75.0,75.0,29.96,North,0,0.0,0.0,100,99.99,,,-99.99,,2013-06-04 01:32:00,
2013-06-03 21:42:00,75.0,75.0,29.96,North,0,0.0,0.0,100,99.99,,,-99.99,,2013-06-04 01:42:00,
2013-06-03 21:53:00,75.0,75.0,29.98,SSW,195,1.0,3.0,100,99.99,,,-99.99,,2013-06-04 01:53:00,
2013-06-03 22:02:00,75.0,75.0,29.99,SSW,201,1.0,3.0,100,99.99,,,-99.99,,2013-06-04 02:02:00,
2013-06-03 22:12:00,75.0,75.0,30.00,SSW,201,1.0,3.0,100,99.99,,,-99.99,,2013-06-04 02:12:00,
2013-06-03 22:22:00,75.0,75.0,30.00,SSW,201,1.0,3.0,100,99.99,,,-99.99,,2013-06-04 02:22:00,
2013-06-03 22:32:00,75.0,75.0,30.00,SSW,205,3.0,5.0,100,99.99,,,-99.99,,2013-06-04 02:32:00,
2013-06-03 22:42:00,75.0,75.0,30.00,SSW,205,3.0,5.0,100,99.99,,,-99.99,,2013-06-04 02:42:00,
2013-06-03 22:52:00,75.0,75.0,30.00,SSW,197,3.0,5.0,100,99.99,,,-99.99,,2013-06-04 02:52:00,
2013-06-03 23:02:00,75.0,75.0,30.00,North,0,0.0,0.0,100,99.99,,,-99.99,,2013-06-04 03:02:00,
2013-06-03 23:12:00,75.0,75.0,30.01,North,0,0.0,0.0,100,99.99,,,-99.99,,2013-06-04 03:12:00,
2013-06-03 23:22:00,75.0,75.0,30.01,North,0,0.0,0.0,100,99.99,,,-99.99,,2013-06-04 03:22:00,
2013-06-03 23:33:00,75.0,75.0,30.01,North,0,0.0,0.0,100,99.99,,,-99.99,,2013-06-04 03:33:00,
2013-06-03 23:43:00,75.0,75.0,30.01,North,0,0.0,0.0,100,99.99,,,-99.99,,2013-06-04 03:43:00,
2013-06-03 23:54:00,75.0,75.0,30.01,SSW,212,0.0,1.0,100,99.99,,,-99.99,,2013-06-04 03:54:00,